createdAt,value
2023-02-12T00:01:16.527Z,101604.94
2023-02-12T00:03:43.478Z,101610.31
2023-02-12T00:06:13.502Z,101603.50
2023-02-12T00:08:41.723Z,101598.50
2023-02-12T00:11:14.665Z,101600.91
2023-02-12T00:13:41.610Z,101601.84
2023-02-12T00:16:11.405Z,101593.50
2023-02-12T00:18:38.393Z,101588.34
2023-02-12T00:21:08.881Z,101596.13
2023-02-12T00:23:36.857Z,101594.31
2023-02-12T00:26:08.736Z,101598.00
2023-02-12T00:28:36.407Z,101596.56
2023-02-12T00:31:09.953Z,101593.97
2023-02-12T00:33:37.299Z,101592.19
2023-02-12T00:36:05.328Z,101600.16
2023-02-12T00:38:32.471Z,101601.66
2023-02-12T00:40:59.552Z,101592.69
2023-02-12T00:43:26.659Z,101596.97
2023-02-12T00:45:54.246Z,101578.81
2023-02-12T00:48:21.374Z,101575.19
2023-02-12T00:50:50.008Z,101579.53
2023-02-12T00:53:17.291Z,101578.16
2023-02-12T00:55:44.188Z,101577.91
2023-02-12T00:58:11.735Z,101575.44
2023-02-12T01:00:38.978Z,101568.56
2023-02-12T01:03:06.321Z,101560.81
2023-02-12T01:05:33.921Z,101567.41
2023-02-12T01:08:00.909Z,101555.94
2023-02-12T01:10:28.409Z,101562.41
2023-02-12T01:12:55.829Z,101550.97
2023-02-12T01:15:22.790Z,101559.19
2023-02-12T01:17:53.015Z,101568.19
2023-02-12T01:20:21.397Z,101558.09
2023-02-12T01:22:48.883Z,101557.69
2023-02-12T01:25:17.207Z,101562.19
2023-02-12T01:27:45.124Z,101554.88
2023-02-12T01:30:14.100Z,101550.88
2023-02-12T01:32:41.091Z,101548.56
2023-02-12T01:35:10.088Z,101548.25
2023-02-12T01:37:38.502Z,101540.03
2023-02-12T01:40:07.183Z,101547.88
2023-02-12T01:42:34.187Z,101541.53
2023-02-12T01:45:13.949Z,101536.59
2023-02-12T01:47:43.008Z,101543.22
2023-02-12T01:50:19.662Z,101539.41
2023-02-12T01:52:52.018Z,101536.75
2023-02-12T01:55:19.701Z,101538.78
2023-02-12T01:57:48.380Z,101535.13
2023-02-12T02:00:20.157Z,101544.56
2023-02-12T02:02:50.712Z,101538.88
2023-02-12T02:05:28.173Z,101541.53
2023-02-12T02:07:55.158Z,101539.47
2023-02-12T02:10:22.069Z,101546.00
2023-02-12T02:13:07.391Z,101543.31
2023-02-12T02:15:36.839Z,101547.16
2023-02-12T02:18:23.258Z,101539.38
2023-02-12T02:21:15.086Z,101540.41
2023-02-12T02:24:06.655Z,101539.91
2023-02-12T02:26:58.919Z,101537.31
2023-02-12T02:29:37.923Z,101530.84
2023-02-12T02:32:19.117Z,101530.78
2023-02-12T02:35:14.113Z,101544.59
2023-02-12T02:37:49.244Z,101537.88
2023-02-12T02:40:33.406Z,101544.50
2023-02-12T02:43:09.769Z,101545.41
2023-02-12T02:45:59.789Z,101554.75
2023-02-12T02:48:33.947Z,101549.44
2023-02-12T02:51:06.564Z,101541.03
2023-02-12T02:53:57.575Z,101541.97
2023-02-12T02:56:28.853Z,101547.19
2023-02-12T02:59:01.660Z,101549.00
2023-02-12T03:01:36.714Z,101551.31
2023-02-12T03:04:11.019Z,101547.00
2023-02-12T03:07:01.609Z,101542.81
2023-02-12T03:09:39.438Z,101531.19
2023-02-12T03:12:14.346Z,101539.88
2023-02-12T03:28:15.718Z,101550.75
2023-02-12T03:30:45.668Z,101540.91
2023-02-12T03:33:36.128Z,101534.13
2023-02-12T03:36:13.959Z,101556.09
2023-02-12T03:38:53.290Z,101540.13
2023-02-12T03:41:45.757Z,101542.47
2023-02-12T03:44:22.752Z,101549.91
2023-02-12T03:47:16.157Z,101556.91
2023-02-12T03:49:59.685Z,101551.25
2023-02-12T03:52:27.267Z,101540.31
2023-02-12T03:54:54.263Z,101548.34
2023-02-12T03:57:25.176Z,101549.06
2023-02-12T03:59:52.100Z,101549.16
2023-02-12T04:02:19.746Z,101546.06
2023-02-12T04:04:47.794Z,101538.69
2023-02-12T04:07:15.557Z,101540.03
2023-02-12T04:09:42.528Z,101540.41
2023-02-12T04:12:47.650Z,101531.34
2023-02-12T04:15:42.149Z,101546.22
2023-02-12T04:18:14.843Z,101544.78
2023-02-12T04:20:48.133Z,101540.50
2023-02-12T04:23:18.059Z,101552.16
2023-02-12T04:26:14.390Z,101549.34
2023-02-12T04:28:56.435Z,101549.53
2023-02-12T04:31:32.281Z,101553.63
2023-02-12T04:34:26.808Z,101559.47
2023-02-12T04:36:59.693Z,101562.53
2023-02-12T04:39:30.846Z,101567.78
2023-02-12T04:42:01.923Z,101561.09
2023-02-12T04:44:31.557Z,101567.47
2023-02-12T04:46:58.689Z,101565.88
2023-02-12T04:49:26.646Z,101564.13
2023-02-12T04:51:53.519Z,101566.16
2023-02-12T04:54:22.312Z,101565.63
2023-02-12T04:56:50.065Z,101567.47
2023-02-12T04:59:17.627Z,101565.97
2023-02-12T05:01:45.738Z,101574.31
2023-02-12T05:04:15.255Z,101575.69
2023-02-12T05:06:43.458Z,101583.75
2023-02-12T05:09:16.936Z,101587.53
2023-02-12T05:11:44.083Z,101592.69
2023-02-12T05:14:11.302Z,101592.06
2023-02-12T05:16:38.307Z,101605.16
2023-02-12T05:19:05.209Z,101606.78
2023-02-12T05:21:32.193Z,101595.25
2023-02-12T05:23:59.057Z,101608.66
2023-02-12T05:26:26.018Z,101615.63
2023-02-12T05:28:52.891Z,101611.22
2023-02-12T05:31:21.647Z,101616.44
2023-02-12T05:33:49.860Z,101615.28
2023-02-12T05:36:20.695Z,101606.38
2023-02-12T05:38:48.625Z,101613.25
2023-02-12T05:41:21.456Z,101630.97
2023-02-12T05:43:49.970Z,101623.84
2023-02-12T05:46:18.753Z,101621.75
2023-02-12T05:48:46.236Z,101628.94
2023-02-12T05:51:16.089Z,101634.03
2023-02-12T05:53:43.326Z,101637.91
2023-02-12T05:56:22.169Z,101652.00
2023-02-12T05:58:54.448Z,101650.53
2023-02-12T06:01:25.570Z,101658.94
2023-02-12T06:03:52.505Z,101667.41
2023-02-12T06:06:19.420Z,101676.50
2023-02-12T06:08:50.022Z,101667.78
2023-02-12T06:11:17.923Z,101674.72
2023-02-12T06:13:45.156Z,101667.19
2023-02-12T06:16:21.596Z,101662.81
2023-02-12T06:18:49.310Z,101671.22
2023-02-12T06:21:17.357Z,101666.50
2023-02-12T06:23:44.412Z,101669.91
2023-02-12T06:26:11.313Z,101665.00
2023-02-12T06:28:38.308Z,101665.59
2023-02-12T06:31:05.991Z,101668.38
2023-02-12T06:33:35.661Z,101677.97
2023-02-12T06:36:04.666Z,101672.75
2023-02-12T06:38:31.511Z,101678.00
2023-02-12T06:41:02.237Z,101682.69
2023-02-12T06:43:29.081Z,101683.97
2023-02-12T06:45:56.428Z,101676.22
2023-02-12T06:48:23.658Z,101682.81
2023-02-12T06:50:50.475Z,101690.53
2023-02-12T06:53:17.450Z,101677.13
2023-02-12T06:55:44.254Z,101685.19
2023-02-12T06:58:11.090Z,101675.75
2023-02-12T07:00:37.930Z,101683.38
2023-02-12T07:03:04.748Z,101694.53
2023-02-12T07:05:32.833Z,101675.09
2023-02-12T07:07:59.693Z,101681.16
2023-02-12T07:10:26.780Z,101688.88
2023-02-12T07:12:53.650Z,101691.00
2023-02-12T07:15:20.471Z,101696.34
2023-02-12T07:17:47.366Z,101697.91
2023-02-12T07:20:14.325Z,101695.66
2023-02-12T07:22:41.185Z,101693.88
2023-02-12T07:25:08.215Z,101695.97
2023-02-12T07:27:39.035Z,101701.84
2023-02-12T07:30:06.917Z,101701.78
2023-02-12T07:32:34.757Z,101692.84
2023-02-12T07:35:01.833Z,101701.94
2023-02-12T07:37:28.862Z,101714.34
2023-02-12T07:39:55.781Z,101707.84
2023-02-12T07:42:22.601Z,101714.50
2023-02-12T07:44:50.570Z,101713.13
2023-02-12T07:47:17.670Z,101720.50
2023-02-12T07:49:44.576Z,101714.31
2023-02-12T07:52:13.329Z,101718.34
2023-02-12T07:54:40.556Z,101724.56
2023-02-12T07:57:07.492Z,101721.38
2023-02-12T07:59:34.401Z,101727.22
2023-02-12T08:02:01.424Z,101728.22
2023-02-12T08:04:28.651Z,101726.72
2023-02-12T08:06:56.810Z,101727.31
2023-02-12T08:09:27.424Z,101732.59
2023-02-12T08:11:54.576Z,101734.22
2023-02-12T08:14:22.619Z,101744.91
2023-02-12T08:16:51.119Z,101747.97
2023-02-12T08:19:21.907Z,101753.50
2023-02-12T08:21:53.338Z,101755.53
2023-02-12T08:24:22.296Z,101752.38
2023-02-12T08:26:49.820Z,101755.38
2023-02-12T08:29:19.853Z,101754.03
2023-02-12T08:31:48.700Z,101747.59
2023-02-12T08:34:21.147Z,101750.06
2023-02-12T08:36:50.436Z,101759.22
2023-02-12T08:39:18.958Z,101752.78
2023-02-12T08:41:46.760Z,101754.03
2023-02-12T08:44:14.096Z,101761.44
2023-02-12T08:46:46.906Z,101758.38
2023-02-12T08:49:16.765Z,101764.22
2023-02-12T08:51:48.787Z,101754.81
2023-02-12T08:54:21.352Z,101761.06
2023-02-12T08:56:48.302Z,101753.53
2023-02-12T08:59:15.962Z,101763.03
2023-02-12T09:01:43.885Z,101757.72
2023-02-12T09:04:21.634Z,101764.34
2023-02-12T09:06:50.105Z,101765.16
2023-02-12T09:09:17.653Z,101765.31
2023-02-12T09:11:44.929Z,101766.28
2023-02-12T09:14:15.441Z,101770.06
2023-02-12T09:16:42.512Z,101780.72
2023-02-12T09:19:12.932Z,101784.50
2023-02-12T09:21:39.770Z,101774.94
2023-02-12T09:24:06.758Z,101778.50
2023-02-12T09:26:33.638Z,101786.72
2023-02-12T09:29:02.235Z,101789.31
2023-02-12T09:31:31.089Z,101795.78
2023-02-12T09:34:00.305Z,101792.78
2023-02-12T09:36:27.611Z,101791.72
2023-02-12T09:38:54.567Z,101787.25
2023-02-12T09:41:27.301Z,101795.66
2023-02-12T09:44:05.032Z,101792.81
2023-02-12T09:46:53.372Z,101796.81
2023-02-12T09:49:59.436Z,101787.72
2023-02-12T09:52:29.103Z,101791.94
2023-02-12T09:54:58.310Z,101793.69
2023-02-12T09:57:34.755Z,101800.22
2023-02-12T10:00:16.639Z,101792.69
2023-02-12T10:02:43.619Z,101794.03
2023-02-12T10:05:20.676Z,101794.47
2023-02-12T10:08:03.602Z,101790.78
2023-02-12T10:10:45.534Z,101780.53
2023-02-12T10:13:40.167Z,101798.91
2023-02-12T10:16:28.806Z,101792.09
2023-02-12T10:19:17.366Z,101788.09
2023-02-12T10:21:44.262Z,101796.22
2023-02-12T10:24:33.613Z,101789.16
2023-02-12T10:27:24.736Z,101797.69
2023-02-12T10:29:52.686Z,101794.13
2023-02-12T10:32:25.875Z,101796.09
2023-02-12T10:34:56.361Z,101802.00
2023-02-12T10:37:38.342Z,101799.41
2023-02-12T10:40:17.557Z,101799.41
2023-02-12T10:42:50.903Z,101804.97
2023-02-12T10:45:25.861Z,101804.31
2023-02-12T10:48:02.070Z,101797.75
2023-02-12T10:50:41.686Z,101809.41
2023-02-12T10:53:17.690Z,101808.38
2023-02-12T10:55:44.703Z,101810.22
2023-02-12T10:58:24.473Z,101810.91
2023-02-12T11:00:59.690Z,101810.91
2023-02-12T11:03:34.971Z,101825.44
2023-02-12T11:06:16.720Z,101820.88
2023-02-12T11:08:44.912Z,101824.09
2023-02-12T11:11:14.891Z,101824.25
2023-02-12T11:13:46.651Z,101827.28
2023-02-12T11:16:13.735Z,101830.50
2023-02-12T11:18:40.635Z,101830.50
2023-02-12T11:21:12.608Z,101824.31
2023-02-12T11:23:42.940Z,101831.09
2023-02-12T11:26:19.088Z,101828.13
2023-02-12T11:28:59.838Z,101827.69
2023-02-12T11:31:35.184Z,101821.94
2023-02-12T11:34:07.884Z,101832.59
2023-02-12T11:36:44.021Z,101829.53
2023-02-12T11:39:23.178Z,101831.94
2023-02-12T11:41:59.563Z,101831.09
2023-02-12T11:44:38.304Z,101829.56
2023-02-12T11:47:17.330Z,101822.34
2023-02-12T11:50:05.908Z,101817.69
2023-02-12T11:52:35.626Z,101816.50
2023-02-12T11:55:07.389Z,101813.41
2023-02-12T11:57:46.968Z,101817.16
2023-02-12T12:00:19.574Z,101819.53
2023-02-12T12:03:25.329Z,101820.97
2023-02-12T12:05:57.586Z,101835.56
2023-02-12T12:08:44.437Z,101833.59
2023-02-12T12:11:36.170Z,101840.63
2023-02-12T12:14:29.830Z,101840.50
2023-02-12T12:17:15.286Z,101838.06
2023-02-12T12:20:17.528Z,101839.81
2023-02-12T12:22:56.172Z,101836.47
2023-02-12T12:25:31.010Z,101836.13
2023-02-12T12:28:33.273Z,101834.69
2023-02-12T12:31:24.449Z,101841.75
2023-02-12T12:34:13.507Z,101841.66
2023-02-12T12:36:58.311Z,101850.19
2023-02-12T12:39:43.361Z,101865.44
2023-02-12T12:42:32.046Z,101863.06
2023-02-12T12:45:12.611Z,101860.81
2023-02-12T12:47:45.258Z,101871.69
2023-02-12T12:50:31.556Z,101870.16
2023-02-12T12:53:12.354Z,101880.47
2023-02-12T12:55:57.896Z,101875.81
2023-02-12T12:59:00.034Z,101884.56
2023-02-12T13:02:05.698Z,101881.03
2023-02-12T13:04:51.210Z,101877.38
2023-02-12T13:07:39.698Z,101892.69
2023-02-12T13:10:34.246Z,101892.94
2023-02-12T13:13:29.696Z,101893.59
2023-02-12T13:16:02.538Z,101889.59
2023-02-12T13:18:47.928Z,101902.03
2023-02-12T13:21:59.003Z,101906.03
2023-02-12T13:24:56.555Z,101910.84
2023-02-12T13:27:27.059Z,101908.66
2023-02-12T13:30:14.162Z,101914.38
2023-02-12T13:32:49.901Z,101924.94
2023-02-12T13:35:21.689Z,101930.38
2023-02-12T13:37:58.252Z,101934.19
2023-02-12T13:40:28.099Z,101927.34
2023-02-12T13:42:58.582Z,101934.16
2023-02-12T13:45:47.278Z,101934.09
2023-02-12T13:48:16.810Z,101938.72
2023-02-12T13:51:14.635Z,101950.25
2023-02-12T13:53:55.248Z,101958.13
2023-02-12T13:56:34.710Z,101956.28
2023-02-12T13:59:01.800Z,101956.81
2023-02-12T14:01:36.548Z,101964.88
2023-02-12T14:04:24.566Z,101963.16
2023-02-12T14:07:01.776Z,101969.97
2023-02-12T14:09:41.239Z,101966.09
2023-02-12T14:12:28.526Z,101976.13
2023-02-12T14:15:09.652Z,101976.25
2023-02-12T14:17:36.798Z,101973.47
2023-02-12T14:20:25.374Z,101973.06
2023-02-12T14:22:52.248Z,101980.03
2023-02-12T14:25:24.965Z,101969.53
2023-02-12T14:27:57.399Z,101979.09
2023-02-12T14:30:40.235Z,101993.69
2023-02-12T14:33:07.265Z,101982.25
2023-02-12T14:35:45.776Z,101989.69
2023-02-12T14:38:12.597Z,101995.19
2023-02-12T14:40:45.433Z,101993.75
2023-02-12T14:43:32.852Z,102006.53
2023-02-12T14:46:22.665Z,102003.84
2023-02-12T14:49:00.759Z,102017.28
2023-02-12T14:51:41.248Z,102014.94
2023-02-12T14:54:27.794Z,102026.03
2023-02-12T14:56:58.086Z,102024.94
2023-02-12T14:59:26.944Z,102028.63
2023-02-12T15:01:57.577Z,102028.94
2023-02-12T15:04:35.599Z,102043.47
2023-02-12T15:07:11.674Z,102047.03
2023-02-12T15:09:58.202Z,102058.63
2023-02-12T15:12:32.851Z,102054.16
2023-02-12T15:15:30.985Z,102069.81
2023-02-12T15:30:01.981Z,102096.72
2023-02-12T15:32:29.989Z,102111.91
2023-02-12T15:34:57.200Z,102099.22
2023-02-12T15:37:30.671Z,102105.75
2023-02-12T15:40:00.972Z,102127.34
2023-02-12T15:42:38.027Z,102128.16
2023-02-12T15:45:08.113Z,102126.16
2023-02-12T15:47:37.625Z,102119.53
2023-02-12T15:50:04.783Z,102128.06
2023-02-12T15:52:36.060Z,102129.44
2023-02-12T15:55:05.137Z,102141.44
2023-02-12T15:57:32.925Z,102145.69
2023-02-12T16:00:11.191Z,102149.94
2023-02-12T16:02:41.378Z,102154.19
2023-02-12T16:05:12.258Z,102142.38
2023-02-12T16:07:39.713Z,102153.22
2023-02-12T16:10:07.275Z,102168.66
2023-02-12T16:12:37.698Z,102175.91
2023-02-12T16:15:05.451Z,102177.31
2023-02-12T16:17:35.718Z,102180.44
2023-02-12T16:20:04.880Z,102184.72
2023-02-12T16:22:36.457Z,102185.69
2023-02-12T16:25:13.910Z,102192.03
2023-02-12T16:27:41.170Z,102198.09
2023-02-12T16:30:26.813Z,102200.69
2023-02-12T16:32:54.490Z,102213.72
2023-02-12T16:35:21.214Z,102216.34
2023-02-12T16:37:50.558Z,102214.84
2023-02-12T16:40:17.540Z,102232.41
2023-02-12T16:42:47.410Z,102216.19
2023-02-12T16:45:26.840Z,102232.47
2023-02-12T16:48:16.171Z,102249.53
2023-02-12T16:50:56.166Z,102239.31
2023-02-12T16:53:30.472Z,102248.84
2023-02-12T16:55:59.023Z,102252.63
2023-02-12T16:58:26.501Z,102248.53
2023-02-12T17:00:55.962Z,102260.28
2023-02-12T17:03:24.609Z,102262.69
2023-02-12T17:05:52.498Z,102263.75
2023-02-12T17:08:22.312Z,102269.75
2023-02-12T17:10:49.330Z,102272.91
2023-02-12T17:13:16.991Z,102278.72
2023-02-12T17:15:51.102Z,102280.72
2023-02-12T17:18:18.278Z,102291.63
2023-02-12T17:20:51.942Z,102298.78
2023-02-12T17:23:18.794Z,102298.56
2023-02-12T17:25:45.707Z,102299.81
2023-02-12T17:28:12.652Z,102303.03
2023-02-12T17:30:39.588Z,102314.25
2023-02-12T17:33:06.519Z,102321.91
2023-02-12T17:35:33.337Z,102320.69
2023-02-12T17:38:00.252Z,102315.56
2023-02-12T17:40:27.100Z,102322.44
2023-02-12T17:42:54.071Z,102329.22
2023-02-12T17:45:20.997Z,102327.91
2023-02-12T17:47:47.902Z,102333.59
2023-02-12T17:50:16.775Z,102351.09
2023-02-12T17:52:44.111Z,102344.34
2023-02-12T17:55:13.864Z,102346.91
2023-02-12T17:57:41.234Z,102348.72
2023-02-12T18:00:15.084Z,102345.84
2023-02-12T18:02:41.935Z,102342.56
2023-02-12T18:05:09.145Z,102358.91
2023-02-12T18:07:37.733Z,102370.72
2023-02-12T18:10:05.983Z,102374.69
2023-02-12T18:12:33.810Z,102384.69
2023-02-12T18:15:03.472Z,102372.81
2023-02-12T18:17:30.927Z,102379.13
2023-02-12T18:19:58.049Z,102379.50
2023-02-12T18:22:24.961Z,102379.38
2023-02-12T18:24:52.232Z,102391.13
2023-02-12T18:27:19.060Z,102394.22
2023-02-12T18:29:46.079Z,102399.50
2023-02-12T18:32:16.014Z,102404.59
2023-02-12T18:34:43.890Z,102406.94
2023-02-12T18:37:12.701Z,102404.03
2023-02-12T18:39:39.653Z,102402.13
2023-02-12T18:42:07.630Z,102408.19
2023-02-12T18:44:34.791Z,102410.69
2023-02-12T18:47:01.829Z,102413.03
2023-02-12T18:49:28.789Z,102416.41
2023-02-12T18:51:55.656Z,102408.00
2023-02-12T18:54:22.915Z,102415.41
2023-02-12T18:56:52.063Z,102415.19
2023-02-12T18:59:19.982Z,102427.13
2023-02-12T19:01:48.323Z,102425.47
2023-02-12T19:04:16.274Z,102428.81
2023-02-12T19:06:49.669Z,102425.47
2023-02-12T19:09:20.305Z,102432.56
2023-02-12T19:11:49.351Z,102440.31
2023-02-12T19:14:18.675Z,102440.06
2023-02-12T19:16:45.955Z,102448.72
2023-02-12T19:19:14.508Z,102458.53
2023-02-12T19:21:41.618Z,102460.00
2023-02-12T19:24:11.452Z,102465.44
2023-02-12T19:26:38.460Z,102456.63
2023-02-12T19:29:05.570Z,102464.34
2023-02-12T19:31:38.209Z,102454.75
2023-02-12T19:34:08.593Z,102463.34
2023-02-12T19:36:36.799Z,102469.84
2023-02-12T19:39:05.027Z,102474.84
2023-02-12T19:41:33.008Z,102478.03
2023-02-12T19:44:01.592Z,102477.19
2023-02-12T19:46:31.081Z,102473.19
2023-02-12T19:49:00.309Z,102477.00
2023-02-12T19:51:29.583Z,102486.84
2023-02-12T19:54:01.457Z,102489.75
2023-02-12T19:56:28.807Z,102487.88
2023-02-12T19:58:57.614Z,102497.31
2023-02-12T20:01:25.017Z,102499.56
2023-02-12T20:03:52.012Z,102495.81
2023-02-12T20:06:24.844Z,102499.81
2023-02-12T20:08:52.269Z,102497.72
2023-02-12T20:11:22.296Z,102489.16
2023-02-12T20:13:49.622Z,102497.53
2023-02-12T20:16:21.152Z,102509.03
2023-02-12T20:18:51.049Z,102495.84
2023-02-12T20:21:27.473Z,102506.13
2023-02-12T20:23:55.137Z,102504.25
2023-02-12T20:26:22.757Z,102514.47
2023-02-12T20:28:50.658Z,102505.72
2023-02-12T20:31:19.175Z,102515.13
2023-02-12T20:33:46.699Z,102513.03
2023-02-12T20:36:15.479Z,102508.88
2023-02-12T20:38:44.817Z,102518.06
2023-02-12T20:41:12.337Z,102515.53
2023-02-12T20:43:39.255Z,102521.66
2023-02-12T20:46:08.438Z,102522.47
2023-02-12T20:48:36.828Z,102519.16
2023-02-12T20:51:06.508Z,102519.38
2023-02-12T20:53:33.742Z,102521.88
2023-02-12T20:56:04.577Z,102524.19
2023-02-12T20:58:32.038Z,102512.47
2023-02-12T21:01:10.793Z,102518.75
2023-02-12T21:03:37.877Z,102501.59
2023-02-12T21:06:05.374Z,102500.75
2023-02-12T21:08:32.476Z,102504.75
2023-02-12T21:11:04.900Z,102508.91
2023-02-12T21:13:31.917Z,102516.84
2023-02-12T21:16:17.756Z,102512.44
2023-02-12T21:18:48.800Z,102512.66
2023-02-12T21:21:29.111Z,102520.38
2023-02-12T21:23:58.387Z,102514.75
2023-02-12T21:26:27.436Z,102513.50
2023-02-12T21:28:57.208Z,102524.16
2023-02-12T21:31:29.516Z,102519.56
2023-02-12T21:33:57.898Z,102520.81
2023-02-12T21:36:33.461Z,102517.44
2023-02-12T21:39:01.073Z,102535.84
2023-02-12T21:41:30.630Z,102534.41
2023-02-12T21:44:00.208Z,102545.03
2023-02-12T21:46:28.639Z,102535.66
2023-02-12T21:48:56.502Z,102541.28
2023-02-12T21:51:24.834Z,102546.25
2023-02-12T21:53:54.081Z,102546.50
2023-02-12T21:56:21.933Z,102545.22
2023-02-12T21:58:50.998Z,102541.88
2023-02-12T22:01:23.269Z,102543.56
2023-02-12T22:03:50.603Z,102552.72
2023-02-12T22:06:19.307Z,102554.81
2023-02-12T22:08:46.880Z,102550.84
2023-02-12T22:11:14.521Z,102548.13
2023-02-12T22:13:41.783Z,102559.41
2023-02-12T22:16:11.735Z,102560.44
2023-02-12T22:18:40.039Z,102561.09
2023-02-12T22:21:10.131Z,102562.75
2023-02-12T22:23:38.807Z,102565.50
2023-02-12T22:26:13.060Z,102568.19
2023-02-12T22:28:45.558Z,102570.47
2023-02-12T22:31:14.722Z,102572.53
2023-02-12T22:33:41.561Z,102574.63
2023-02-12T22:36:09.974Z,102565.16
2023-02-12T22:38:38.642Z,102566.47
2023-02-12T22:41:06.975Z,102569.38
2023-02-12T22:43:35.963Z,102572.47
2023-02-12T22:46:02.835Z,102575.41
2023-02-12T22:48:29.773Z,102571.44
2023-02-12T22:50:58.361Z,102570.16
2023-02-12T22:53:26.449Z,102581.00
2023-02-12T22:55:53.338Z,102581.81
2023-02-12T22:58:20.254Z,102582.47
2023-02-12T23:00:47.147Z,102580.56
2023-02-12T23:03:13.990Z,102572.22
2023-02-12T23:05:40.855Z,102577.81
2023-02-12T23:08:07.673Z,102578.22
2023-02-12T23:10:34.552Z,102584.50
2023-02-12T23:13:03.065Z,102581.94
2023-02-12T23:15:30.766Z,102589.69
2023-02-12T23:17:57.596Z,102583.69
2023-02-12T23:20:24.569Z,102587.91
2023-02-12T23:22:51.498Z,102588.75
2023-02-12T23:25:18.404Z,102592.81
2023-02-12T23:27:45.241Z,102591.00
2023-02-12T23:30:12.656Z,102587.06
2023-02-12T23:32:39.485Z,102591.03
2023-02-12T23:35:06.663Z,102585.50
2023-02-12T23:37:33.558Z,102595.16
2023-02-12T23:40:00.424Z,102587.47
2023-02-12T23:42:27.314Z,102591.53
2023-02-12T23:44:56.201Z,102595.78
2023-02-12T23:47:23.684Z,102594.50
2023-02-12T23:49:50.573Z,102605.94
2023-02-12T23:52:17.407Z,102605.09
2023-02-12T23:54:44.255Z,102604.66
2023-02-12T23:57:11.115Z,102614.38
2023-02-12T23:59:37.874Z,102611.47
